createdAt,value
2022-09-07T00:01:17.761Z,13.18
2022-09-07T00:03:44.844Z,12.35
2022-09-07T00:06:12.921Z,14.00
2022-09-07T00:08:40.467Z,13.00
2022-09-07T00:11:08.741Z,13.02
2022-09-07T00:13:36.891Z,13.65
2022-09-07T00:16:08.593Z,13.57
2022-09-07T00:18:36.080Z,13.20
2022-09-07T00:21:04.979Z,12.90
2022-09-07T00:23:32.498Z,14.55
2022-09-07T00:26:00.655Z,12.63
2022-09-07T00:28:27.975Z,12.77
2022-09-07T00:30:55.096Z,13.82
2022-09-07T00:33:22.394Z,13.23
2022-09-07T00:35:49.541Z,14.43
2022-09-07T00:38:16.615Z,15.65
2022-09-07T00:40:43.724Z,13.75
2022-09-07T00:43:15.880Z,15.07
2022-09-07T00:45:43.107Z,14.27
2022-09-07T00:48:15.151Z,14.23
2022-09-07T00:50:45.086Z,13.30
2022-09-07T00:53:21.273Z,13.38
2022-09-07T00:55:49.690Z,13.55
2022-09-07T00:58:17.403Z,13.52
2022-09-07T01:00:46.323Z,13.52
2022-09-07T01:03:14.971Z,14.88
2022-09-07T01:05:44.310Z,13.85
2022-09-07T01:08:12.670Z,13.35
2022-09-07T01:10:39.869Z,15.25
2022-09-07T01:13:07.160Z,15.60
2022-09-07T01:15:41.297Z,13.85
2022-09-07T01:18:12.151Z,14.95
2022-09-07T01:20:55.408Z,15.10
2022-09-07T01:23:31.738Z,15.40
2022-09-07T01:26:23.139Z,15.38
2022-09-07T01:28:54.907Z,16.23
2022-09-07T01:31:22.118Z,15.10
2022-09-07T01:34:08.063Z,14.68
2022-09-07T01:36:38.488Z,15.02
2022-09-07T01:39:06.039Z,16.27
2022-09-07T01:41:38.672Z,14.85
2022-09-07T01:44:21.672Z,15.73
2022-09-07T01:46:57.869Z,15.07
2022-09-07T01:49:27.307Z,17.52
2022-09-07T01:51:57.895Z,17.63
2022-09-07T01:54:29.498Z,17.20
2022-09-07T01:57:04.474Z,15.45
2022-09-07T01:59:39.873Z,16.73
2022-09-07T02:02:11.573Z,14.98
2022-09-07T02:04:47.764Z,15.75
2022-09-07T02:07:27.479Z,14.90
2022-09-07T02:10:00.233Z,13.63
2022-09-07T02:12:35.138Z,14.13
2022-09-07T02:15:04.502Z,14.75
2022-09-07T02:17:33.942Z,16.75
2022-09-07T02:20:24.174Z,14.90
2022-09-07T02:22:54.247Z,14.43
2022-09-07T02:25:23.534Z,15.98
2022-09-07T02:27:52.711Z,16.58
2022-09-07T02:30:20.213Z,16.02
2022-09-07T02:32:47.362Z,14.13
2022-09-07T02:35:15.099Z,14.15
2022-09-07T02:37:43.227Z,15.80
2022-09-07T02:40:11.230Z,13.98
2022-09-07T02:42:39.100Z,14.18
2022-09-07T02:45:08.255Z,16.38
2022-09-07T02:47:35.329Z,14.68
2022-09-07T02:50:17.689Z,13.93
2022-09-07T02:52:44.835Z,14.30
2022-09-07T02:55:21.125Z,13.95
2022-09-07T02:57:56.620Z,14.52
2022-09-07T03:00:26.221Z,14.60
2022-09-07T03:02:56.549Z,15.25
2022-09-07T03:05:29.904Z,14.73
2022-09-07T03:08:01.715Z,14.60
2022-09-07T03:10:29.176Z,17.08
2022-09-07T03:12:56.269Z,17.33
2022-09-07T03:15:24.893Z,16.15
2022-09-07T03:17:52.752Z,15.98
2022-09-07T03:20:20.832Z,16.55
2022-09-07T03:22:49.121Z,16.20
2022-09-07T03:25:16.839Z,16.10
2022-09-07T03:27:44.315Z,18.80
2022-09-07T03:30:11.911Z,15.35
2022-09-07T03:32:39.686Z,15.50
2022-09-07T03:35:07.753Z,16.17
2022-09-07T03:37:38.705Z,14.52
2022-09-07T03:40:07.246Z,14.02
2022-09-07T03:42:34.407Z,16.10
2022-09-07T03:45:01.531Z,16.08
2022-09-07T03:47:28.772Z,20.10
2022-09-07T03:49:55.987Z,16.05
2022-09-07T03:52:23.181Z,17.30
2022-09-07T03:54:50.421Z,16.60
2022-09-07T03:57:20.160Z,15.48
2022-09-07T03:59:48.054Z,18.25
2022-09-07T04:02:15.400Z,15.55
2022-09-07T04:04:43.184Z,15.40
2022-09-07T04:07:10.701Z,15.93
2022-09-07T04:09:37.863Z,16.70
2022-09-07T04:12:05.138Z,15.70
2022-09-07T04:14:32.255Z,14.82
2022-09-07T04:16:59.435Z,15.15
2022-09-07T04:19:26.647Z,15.07
2022-09-07T04:21:53.814Z,14.73
2022-09-07T04:24:20.914Z,15.18
2022-09-07T04:26:48.054Z,15.13
2022-09-07T04:29:15.265Z,13.63
2022-09-07T04:31:42.475Z,14.70
2022-09-07T04:34:10.969Z,14.40
2022-09-07T04:36:38.120Z,16.30
2022-09-07T04:39:05.943Z,16.38
2022-09-07T04:41:34.236Z,15.57
2022-09-07T04:44:02.361Z,17.50
2022-09-07T04:46:30.997Z,15.32
2022-09-07T04:48:59.097Z,18.48
2022-09-07T04:51:27.754Z,15.75
2022-09-07T04:53:55.622Z,16.92
2022-09-07T04:56:23.105Z,20.33
2022-09-07T04:58:50.448Z,18.95
2022-09-07T05:01:19.308Z,19.70
2022-09-07T05:03:47.129Z,23.67
2022-09-07T05:06:14.287Z,20.67
2022-09-07T05:08:42.655Z,21.17
2022-09-07T05:11:10.565Z,17.67
2022-09-07T05:13:37.751Z,17.42
2022-09-07T05:16:14.993Z,17.38
2022-09-07T05:18:43.481Z,17.85
2022-09-07T05:21:11.698Z,17.10
2022-09-07T05:23:39.131Z,17.15
2022-09-07T05:26:06.469Z,20.45
2022-09-07T05:28:34.727Z,17.52
2022-09-07T05:36:40.970Z,19.02
2022-09-07T05:39:08.697Z,16.88
2022-09-07T05:41:36.442Z,17.45
2022-09-07T05:46:52.653Z,20.95
2022-09-07T05:49:19.836Z,18.58
2022-09-07T05:51:48.275Z,23.58
2022-09-07T05:54:15.428Z,23.73
2022-09-07T05:56:42.719Z,20.95
2022-09-07T05:59:09.931Z,18.65
2022-09-07T06:01:37.129Z,14.40
2022-09-07T06:04:04.684Z,13.45
2022-09-07T06:06:32.538Z,11.63
2022-09-07T06:08:59.955Z,10.05
2022-09-07T06:11:27.366Z,7.40
2022-09-07T06:13:54.848Z,6.72
2022-09-07T06:16:22.818Z,6.40
2022-09-07T06:18:50.929Z,6.55
2022-09-07T06:21:19.738Z,6.13
2022-09-07T06:23:47.624Z,6.43
2022-09-07T06:26:15.287Z,6.97
2022-09-07T06:28:49.164Z,7.70
2022-09-07T06:31:18.181Z,7.20
2022-09-07T06:33:45.827Z,7.13
2022-09-07T06:36:14.101Z,5.90
2022-09-07T06:38:41.826Z,5.40
2022-09-07T06:44:06.212Z,5.30
2022-09-07T06:49:20.384Z,5.25
2022-09-07T06:51:47.660Z,5.15
2022-09-07T06:57:08.549Z,6.53
2022-09-07T06:59:36.148Z,5.53
2022-09-07T07:02:03.673Z,5.03
2022-09-07T07:04:31.115Z,4.78
2022-09-07T07:06:58.963Z,4.70
2022-09-07T07:09:26.115Z,5.35
2022-09-07T07:11:53.204Z,4.18
2022-09-07T07:14:21.170Z,3.70
2022-09-07T07:16:48.424Z,4.35
2022-09-07T07:19:15.847Z,3.88
2022-09-07T07:22:07.828Z,4.50
2022-09-07T07:24:30.200Z,4.60
2022-09-07T07:26:57.638Z,3.97
2022-09-07T07:29:28.251Z,3.25
2022-09-07T07:31:56.006Z,3.53
2022-09-07T07:34:23.235Z,3.80
2022-09-07T07:36:50.407Z,3.10
2022-09-07T07:42:05.923Z,3.20
2022-09-07T07:44:33.290Z,2.90
2022-09-07T07:47:00.768Z,3.10
2022-09-07T07:49:28.058Z,3.40
2022-09-07T07:54:43.124Z,3.85
2022-09-07T07:57:10.392Z,2.90
2022-09-07T07:59:37.527Z,3.22
2022-09-07T08:02:06.019Z,3.40
2022-09-07T08:04:33.865Z,3.58
2022-09-07T08:07:04.485Z,4.50
2022-09-07T08:09:36.991Z,3.50
2022-09-07T08:12:04.248Z,3.45
2022-09-07T08:14:31.614Z,3.40
2022-09-07T08:16:58.744Z,3.15
2022-09-07T08:19:25.792Z,3.10
2022-09-07T08:21:53.068Z,2.42
2022-09-07T08:24:20.908Z,2.70
2022-09-07T08:26:48.354Z,2.58
2022-09-07T08:29:15.543Z,2.63
2022-09-07T08:31:43.034Z,3.03
2022-09-07T08:34:10.155Z,3.05
2022-09-07T08:36:37.195Z,2.80
2022-09-07T08:39:04.362Z,2.63
2022-09-07T08:41:55.678Z,2.60
2022-09-07T08:44:24.754Z,2.50
2022-09-07T08:46:51.803Z,2.70
2022-09-07T08:49:26.250Z,3.05
2022-09-07T08:52:02.805Z,3.10
2022-09-07T08:54:30.171Z,2.50
2022-09-07T08:59:52.687Z,2.45
2022-09-07T09:05:27.797Z,2.53
2022-09-07T09:06:11.245Z,2.83
2022-09-07T09:07:58.018Z,2.50
2022-09-07T09:10:31.327Z,2.33
2022-09-07T09:13:11.202Z,2.47
2022-09-07T09:15:41.349Z,2.20
2022-09-07T09:18:14.844Z,2.20
2022-09-07T09:20:49.170Z,1.88
2022-09-07T09:23:17.469Z,1.90
2022-09-07T09:25:52.506Z,2.53
2022-09-07T09:28:19.593Z,2.33
2022-09-07T09:30:50.029Z,1.70
2022-09-07T09:33:21.987Z,1.83
2022-09-07T09:35:53.792Z,2.13
2022-09-07T09:38:29.851Z,2.22
2022-09-07T09:40:57.858Z,1.90
2022-09-07T09:43:26.546Z,2.03
2022-09-07T09:48:42.805Z,1.50
2022-09-07T09:53:58.889Z,1.65
2022-09-07T09:56:38.977Z,1.55
2022-09-07T10:05:30.981Z,1.75
2022-09-07T10:07:58.148Z,1.83
2022-09-07T10:10:26.525Z,1.75
2022-09-07T10:12:55.149Z,1.60
2022-09-07T10:15:40.119Z,1.90
2022-09-07T10:18:09.692Z,1.27
2022-09-07T10:20:37.999Z,1.40
2022-09-07T10:23:06.904Z,1.52
2022-09-07T10:25:36.703Z,2.25
2022-09-07T10:28:12.808Z,1.80
2022-09-07T10:30:58.620Z,1.65
2022-09-07T10:33:25.691Z,1.70
2022-09-07T10:35:52.779Z,1.73
2022-09-07T10:38:25.022Z,2.08
2022-09-07T10:40:55.332Z,1.55
2022-09-07T10:43:40.994Z,1.88
2022-09-07T10:46:55.791Z,1.30
2022-09-07T10:51:34.978Z,1.52
2022-09-07T10:57:04.458Z,1.90
2022-09-07T11:05:39.709Z,1.63
2022-09-07T11:08:24.563Z,1.38
2022-09-07T11:10:59.971Z,1.67
2022-09-07T11:13:29.005Z,1.48
2022-09-07T11:15:58.849Z,1.50
2022-09-07T11:18:29.085Z,1.92
2022-09-07T11:20:58.910Z,1.83
2022-09-07T11:23:29.367Z,2.13
2022-09-07T11:26:00.923Z,1.75
2022-09-07T11:28:46.388Z,1.50
2022-09-07T11:31:24.406Z,1.58
2022-09-07T11:36:46.206Z,4.10
2022-09-07T11:39:22.884Z,1.40
2022-09-07T11:41:54.836Z,2.33
2022-09-07T11:44:29.395Z,1.90
2022-09-07T11:47:00.226Z,1.80
2022-09-07T11:49:27.275Z,1.80
2022-09-07T11:52:05.092Z,1.73
2022-09-07T11:54:37.476Z,1.50
2022-09-07T11:57:04.531Z,1.40
2022-09-07T11:59:36.904Z,1.60
2022-09-07T12:02:16.295Z,1.58
2022-09-07T12:04:51.702Z,1.38
2022-09-07T12:07:30.577Z,1.58
2022-09-07T12:10:06.868Z,1.30
2022-09-07T12:12:52.625Z,1.80
2022-09-07T12:15:38.274Z,1.45
2022-09-07T12:18:21.868Z,1.00
2022-09-07T12:20:49.355Z,1.08
2022-09-07T12:23:16.413Z,1.60
2022-09-07T12:25:52.748Z,1.02
2022-09-07T12:28:25.953Z,1.40
2022-09-07T12:30:55.342Z,1.35
2022-09-07T12:33:23.858Z,0.85
2022-09-07T12:35:50.954Z,1.00
2022-09-07T12:38:18.009Z,1.08
2022-09-07T12:40:47.289Z,0.85
2022-09-07T12:43:14.485Z,1.08
2022-09-07T12:45:44.479Z,1.10
2022-09-07T12:48:17.581Z,1.38
2022-09-07T12:51:03.416Z,1.70
2022-09-07T12:53:36.667Z,1.00
2022-09-07T12:56:22.626Z,1.10
2022-09-07T12:58:59.794Z,6.93
2022-09-07T13:01:31.565Z,1.42
2022-09-07T13:04:17.144Z,1.80
2022-09-07T13:07:08.652Z,1.20
2022-09-07T13:09:37.265Z,1.30
2022-09-07T13:15:29.923Z,1.55
2022-09-07T13:17:57.259Z,1.10
2022-09-07T13:20:30.148Z,0.82
2022-09-07T13:22:58.217Z,1.13
2022-09-07T13:25:28.055Z,0.90
2022-09-07T13:27:55.083Z,1.45
2022-09-07T13:30:23.343Z,1.20
2022-09-07T13:35:37.959Z,1.10
2022-09-07T13:38:05.601Z,0.85
2022-09-07T13:40:34.150Z,1.00
2022-09-07T13:43:01.853Z,1.17
2022-09-07T13:45:46.510Z,1.60
2022-09-07T13:48:19.041Z,1.45
2022-09-07T13:50:48.674Z,1.00
2022-09-07T13:53:15.785Z,0.90
2022-09-07T13:55:52.359Z,1.70
2022-09-07T13:58:22.256Z,1.33
2022-09-07T14:00:53.716Z,1.30
2022-09-07T14:03:22.056Z,1.98
2022-09-07T14:05:49.276Z,1.92
2022-09-07T14:08:29.980Z,2.42
2022-09-07T14:10:57.139Z,1.77
2022-09-07T14:13:24.241Z,1.38
2022-09-07T14:15:51.782Z,1.88
2022-09-07T14:18:23.092Z,1.40
2022-09-07T14:20:51.633Z,0.90
2022-09-07T14:23:32.318Z,1.00
2022-09-07T14:26:16.715Z,0.75
2022-09-07T14:28:45.917Z,1.08
2022-09-07T14:31:14.449Z,1.23
2022-09-07T14:33:46.904Z,2.63
2022-09-07T14:36:39.236Z,1.30
2022-09-07T14:39:04.538Z,1.65
2022-09-07T14:46:51.781Z,1.73
2022-09-07T14:49:23.090Z,1.20
2022-09-07T14:51:50.953Z,0.80
2022-09-07T14:54:21.005Z,1.10
2022-09-07T14:57:05.322Z,0.98
2022-09-07T14:59:37.692Z,0.88
2022-09-07T15:02:22.122Z,1.25
2022-09-07T15:04:50.739Z,1.08
2022-09-07T15:07:31.104Z,0.80
2022-09-07T15:10:12.987Z,1.00
2022-09-07T15:12:42.878Z,1.05
2022-09-07T15:15:22.089Z,1.10
2022-09-07T15:17:49.735Z,1.00
2022-09-07T15:20:36.916Z,1.10
2022-09-07T15:23:10.202Z,0.82
2022-09-07T15:25:37.642Z,1.00
2022-09-07T15:28:04.928Z,1.35
2022-09-07T15:30:33.401Z,1.08
2022-09-07T15:33:00.660Z,1.13
2022-09-07T15:35:27.791Z,1.00
2022-09-07T15:38:04.396Z,1.25
2022-09-07T15:40:47.345Z,0.88
2022-09-07T15:43:26.777Z,1.25
2022-09-07T15:45:55.597Z,1.08
2022-09-07T15:48:25.203Z,0.98
2022-09-07T15:51:00.944Z,1.17
2022-09-07T15:56:15.954Z,1.05
2022-09-07T15:58:44.431Z,1.50
2022-09-07T16:03:59.548Z,1.60
2022-09-07T16:06:27.296Z,1.42
2022-09-07T16:08:55.406Z,1.25
2022-09-07T16:11:27.006Z,2.72
2022-09-07T16:14:02.347Z,2.20
2022-09-07T16:19:20.522Z,1.92
2022-09-07T16:21:47.891Z,1.10
2022-09-07T16:24:15.158Z,1.70
2022-09-07T16:26:42.291Z,1.00
2022-09-07T16:29:09.592Z,1.45
2022-09-07T16:31:37.092Z,1.17
2022-09-07T16:34:04.758Z,1.08
2022-09-07T16:36:32.126Z,1.00
2022-09-07T16:39:00.342Z,1.10
2022-09-07T16:41:29.370Z,1.25
2022-09-07T16:43:56.703Z,1.10
2022-09-07T16:46:25.309Z,1.33
2022-09-07T16:48:52.433Z,1.67
2022-09-07T16:51:21.340Z,1.40
2022-09-07T16:53:49.659Z,1.13
2022-09-07T16:56:19.271Z,1.13
2022-09-07T16:58:47.978Z,1.17
2022-09-07T17:01:16.787Z,1.30
2022-09-07T17:03:44.090Z,1.25
2022-09-07T17:06:12.146Z,1.17
2022-09-07T17:08:40.092Z,1.40
2022-09-07T17:11:08.856Z,1.10
2022-09-07T17:13:36.825Z,1.10
2022-09-07T17:16:04.623Z,1.70
2022-09-07T17:21:19.980Z,1.60
2022-09-07T17:23:54.360Z,1.25
2022-09-07T17:26:23.707Z,2.83
2022-09-07T17:28:54.606Z,1.85
2022-09-07T17:34:10.897Z,1.77
2022-09-07T17:36:37.990Z,1.90
2022-09-07T17:39:20.956Z,2.17
2022-09-07T17:41:49.568Z,1.73
2022-09-07T17:44:16.833Z,1.63
2022-09-07T17:46:44.259Z,1.85
2022-09-07T17:49:16.813Z,1.90
2022-09-07T17:51:45.062Z,2.10
2022-09-07T17:54:14.422Z,2.00
2022-09-07T17:56:42.090Z,2.10
2022-09-07T18:01:57.106Z,2.10
2022-09-07T18:04:24.915Z,2.40
2022-09-07T18:06:52.251Z,2.17
2022-09-07T18:09:20.081Z,1.83
2022-09-07T18:11:49.120Z,2.10
2022-09-07T18:14:17.206Z,1.70
2022-09-07T18:16:45.275Z,2.22
2022-09-07T18:19:13.549Z,2.15
2022-09-07T18:21:43.024Z,1.92
2022-09-07T18:24:16.672Z,2.80
2022-09-07T18:29:27.384Z,2.60
2022-09-07T18:31:55.766Z,2.78
2022-09-07T18:34:23.169Z,2.50
2022-09-07T18:36:50.846Z,2.50
2022-09-07T18:39:18.412Z,1.88
2022-09-07T18:41:46.007Z,1.77
2022-09-07T18:47:00.990Z,2.00
2022-09-07T18:49:28.152Z,2.63
2022-09-07T18:54:42.460Z,2.28
2022-09-07T18:57:09.533Z,2.30
2022-09-07T18:59:36.668Z,2.25
2022-09-07T19:02:05.935Z,2.10
2022-09-07T19:07:26.021Z,2.35
2022-09-07T19:09:56.054Z,2.17
2022-09-07T19:12:24.290Z,2.30
2022-09-07T19:14:51.655Z,2.10
2022-09-07T19:17:18.796Z,2.25
2022-09-07T19:19:46.055Z,1.95
2022-09-07T19:22:13.118Z,1.98
2022-09-07T19:24:40.519Z,1.90
2022-09-07T19:27:07.601Z,1.95
2022-09-07T19:29:34.763Z,2.13
2022-09-07T19:32:04.893Z,1.90
2022-09-07T19:34:32.125Z,2.33
2022-09-07T19:36:59.441Z,1.90
2022-09-07T19:39:26.688Z,2.17
2022-09-07T19:41:55.098Z,2.53
2022-09-07T19:44:22.251Z,2.95
2022-09-07T19:46:49.491Z,2.47
2022-09-07T19:49:17.066Z,7.78
2022-09-07T19:51:44.267Z,7.03
2022-09-07T19:54:11.914Z,4.88
2022-09-07T19:56:39.819Z,2.33
2022-09-07T19:59:07.255Z,2.38
2022-09-07T20:01:35.208Z,2.50
2022-09-07T20:04:03.667Z,2.97
2022-09-07T20:06:32.814Z,2.90
2022-09-07T20:09:01.358Z,2.90
2022-09-07T20:11:28.816Z,3.10
2022-09-07T20:13:57.262Z,2.28
2022-09-07T20:16:25.076Z,2.72
2022-09-07T20:18:52.374Z,2.40
2022-09-07T20:21:20.717Z,2.58
2022-09-07T20:23:47.975Z,3.08
2022-09-07T20:26:16.224Z,2.38
2022-09-07T20:28:43.829Z,2.30
2022-09-07T20:31:14.686Z,2.50
2022-09-07T20:33:42.834Z,2.70
2022-09-07T20:36:11.101Z,2.60
2022-09-07T20:38:41.613Z,3.00
2022-09-07T20:41:10.693Z,2.90
2022-09-07T20:43:37.754Z,3.10
2022-09-07T20:46:04.849Z,4.22
2022-09-07T20:48:32.374Z,4.07
2022-09-07T20:51:00.722Z,3.22
2022-09-07T20:53:28.181Z,3.17
2022-09-07T20:55:59.343Z,3.78
2022-09-07T20:58:26.465Z,3.22
2022-09-07T21:00:54.118Z,3.60
2022-09-07T21:03:21.346Z,3.40
2022-09-07T21:05:48.550Z,3.40
2022-09-07T21:08:15.735Z,3.97
2022-09-07T21:10:44.154Z,4.45
2022-09-07T21:13:11.527Z,3.67
2022-09-07T21:15:41.941Z,3.25
2022-09-07T21:18:12.793Z,3.28
2022-09-07T21:20:39.926Z,3.20
2022-09-07T21:23:07.121Z,3.00
2022-09-07T21:25:34.192Z,3.17
2022-09-07T21:28:01.556Z,3.35
2022-09-07T21:30:28.645Z,3.65
2022-09-07T21:32:58.786Z,3.60
2022-09-07T21:35:28.127Z,3.13
2022-09-07T21:37:55.235Z,3.63
2022-09-07T21:40:23.442Z,3.22
2022-09-07T21:42:51.906Z,3.10
2022-09-07T21:45:19.006Z,3.58
2022-09-07T21:47:46.107Z,3.10
2022-09-07T21:50:13.809Z,2.70
2022-09-07T21:52:40.867Z,3.22
2022-09-07T21:55:08.410Z,3.60
2022-09-07T21:57:35.518Z,3.40
2022-09-07T22:00:02.831Z,3.70
2022-09-07T22:02:29.979Z,3.22
2022-09-07T22:04:57.353Z,3.10
2022-09-07T22:07:24.566Z,3.10
2022-09-07T22:09:51.641Z,3.10
2022-09-07T22:12:18.771Z,3.67
2022-09-07T22:14:46.391Z,3.35
2022-09-07T22:17:14.182Z,3.45
2022-09-07T22:19:41.632Z,3.20
2022-09-07T22:22:08.741Z,3.05
2022-09-07T22:24:35.879Z,3.50
2022-09-07T22:27:02.947Z,3.22
2022-09-07T22:29:30.089Z,3.80
2022-09-07T22:31:57.222Z,3.70
2022-09-07T22:34:24.342Z,4.28
2022-09-07T22:36:51.543Z,3.80
2022-09-07T22:39:18.998Z,3.90
2022-09-07T22:41:47.833Z,4.15
2022-09-07T22:44:16.292Z,3.92
2022-09-07T22:46:46.733Z,4.13
2022-09-07T22:49:15.905Z,3.90
2022-09-07T22:51:43.197Z,4.40
2022-09-07T22:54:10.405Z,4.10
2022-09-07T22:56:38.260Z,4.00
2022-09-07T22:59:10.641Z,4.50
2022-09-07T23:01:38.251Z,4.32
2022-09-07T23:04:05.946Z,4.25
2022-09-07T23:06:34.521Z,4.25
2022-09-07T23:09:02.872Z,3.90
2022-09-07T23:11:30.059Z,4.35
2022-09-07T23:14:01.555Z,4.40
2022-09-07T23:16:29.195Z,4.45
2022-09-07T23:18:58.032Z,4.30
2022-09-07T23:21:25.236Z,4.32
2022-09-07T23:23:53.204Z,4.72
2022-09-07T23:26:21.045Z,4.97
2022-09-07T23:28:52.279Z,4.60
2022-09-07T23:31:19.521Z,4.72
2022-09-07T23:33:46.654Z,4.90
2022-09-07T23:36:13.762Z,4.97
2022-09-07T23:38:43.533Z,5.32
2022-09-07T23:41:10.631Z,5.25
2022-09-07T23:43:37.758Z,5.40
2022-09-07T23:46:04.876Z,4.80
2022-09-07T23:48:32.037Z,5.20
2022-09-07T23:50:59.269Z,5.55
2022-09-07T23:53:26.860Z,5.20
2022-09-07T23:55:54.257Z,5.03
2022-09-07T23:58:22.750Z,4.90
